Time;durP1;ratioP1;P1;durP2;ratioP2;P2;SDS_P1;SDS_P2;PMS_P1;PMS_P2;Temp;Humidity;BMP_temperature;BMP_pressure;BME280_temperature;BME280_humidity;BME280_pressure;Samples;Min_cycle;Max_cycle;Signal;HPM_P1;HPM_P2
2023/12/03 00:00:39;;;;;;;17.67;14.30;;;;;;;-4.26;100.00;100513.28;5024844;28;20584;-60
2023/12/03 00:03:05;;;;;;;19.83;15.03;;;;;;;-4.21;100.00;100515.00;5038916;28;20634;-61
2023/12/03 00:05:30;;;;;;;17.63;14.53;;;;;;;-4.26;100.00;100514.13;5027131;28;20535;-60
2023/12/03 00:07:56;;;;;;;17.27;14.40;;;;;;;-4.30;100.00;100524.94;5030763;28;20178;-60
2023/12/03 00:10:23;;;;;;;22.30;14.80;;;;;;;-4.25;100.00;100520.00;5021079;28;21710;-59
2023/12/03 00:12:48;;;;;;;19.00;15.67;;;;;;;-4.22;100.00;100527.56;5029413;28;20182;-59
2023/12/03 00:15:13;;;;;;;18.77;14.87;;;;;;;-4.18;100.00;100520.91;5031146;28;20431;-59
2023/12/03 00:17:38;;;;;;;19.97;15.80;;;;;;;-4.15;100.00;100528.50;5030964;28;20178;-59
2023/12/03 00:20:05;;;;;;;19.90;14.23;;;;;;;-4.11;100.00;100528.53;5022326;28;20179;-61
2023/12/03 00:22:30;;;;;;;15.90;13.23;;;;;;;-4.16;100.00;100525.13;5028454;28;20200;-59
2023/12/03 00:24:56;;;;;;;17.77;13.90;;;;;;;-4.08;100.00;100528.59;5031129;28;20422;-60
2023/12/03 00:27:21;;;;;;;17.03;14.10;;;;;;;-4.26;100.00;100526.66;5030768;28;20182;-59
2023/12/03 00:29:46;;;;;;;18.73;14.40;;;;;;;-4.15;100.00;100528.50;5031040;28;20656;-61
2023/12/03 00:32:11;;;;;;;18.30;14.60;;;;;;;-4.15;100.00;100529.34;4982181;28;20226;-58
2023/12/03 00:34:37;;;;;;;18.23;14.87;;;;;;;-4.19;100.00;100534.28;5030651;28;20210;-59
2023/12/03 00:37:02;;;;;;;20.57;14.97;;;;;;;-4.39;100.00;100532.34;5025379;28;20269;-60
2023/12/03 00:39:27;;;;;;;18.77;15.10;;;;;;;-4.35;100.00;100536.63;5026683;28;20615;-59
2023/12/03 00:41:52;;;;;;;20.20;15.20;;;;;;;-4.26;100.00;100543.44;5018275;28;20238;-61
2023/12/03 00:44:18;;;;;;;17.90;14.70;;;;;;;-4.40;100.00;100550.78;5030977;28;20193;-60
2023/12/03 00:46:43;;;;;;;19.80;15.03;;;;;;;-4.30;100.00;100544.22;5030369;28;20196;-59
2023/12/03 00:49:10;;;;;;;19.13;14.17;;;;;;;-4.38;100.00;100556.66;5030803;28;20221;-60
2023/12/03 00:51:35;;;;;;;18.07;14.57;;;;;;;-4.41;100.00;100552.44;5032717;28;20228;-60
2023/12/03 00:54:00;;;;;;;19.07;14.50;;;;;;;-4.44;100.00;100549.88;5034534;28;20401;-60
2023/12/03 00:56:25;;;;;;;21.00;15.80;;;;;;;-4.40;100.00;100554.13;5030371;28;20186;-61
2023/12/03 00:58:51;;;;;;;17.93;14.10;;;;;;;-4.45;100.00;100552.34;5030787;28;20201;-59
2023/12/03 01:01:19;;;;;;;20.20;15.07;;;;;;;-4.52;100.00;100558.97;5030549;28;20237;-59
2023/12/03 01:03:44;;;;;;;21.23;16.33;;;;;;;-4.46;100.00;100559.06;5029744;28;20206;-60
2023/12/03 01:06:10;;;;;;;22.10;15.97;;;;;;;-4.30;100.00;100555.09;5025562;28;20417;-59
2023/12/03 01:08:35;;;;;;;22.20;14.97;;;;;;;-4.24;100.00;100555.19;5029840;28;20178;-60
2023/12/03 01:11:04;;;;;;;19.23;14.40;;;;;;;-4.17;100.00;100563.63;5020021;28;20349;-60
2023/12/03 01:13:29;;;;;;;20.47;14.97;;;;;;;-4.14;100.00;100570.38;5031687;28;20170;-59
2023/12/03 01:15:54;;;;;;;21.67;15.43;;;;;;;-3.98;100.00;100578.94;5034172;28;20429;-59
2023/12/03 01:18:20;;;;;;;20.80;15.30;;;;;;;-3.81;100.00;100579.16;5033625;28;20210;-59
2023/12/03 01:20:45;;;;;;;21.40;15.43;;;;;;;-3.91;100.00;100580.72;5023473;28;20244;-61
2023/12/03 01:23:10;;;;;;;18.50;14.67;;;;;;;-3.68;100.00;100593.56;5032472;28;20204;-59
2023/12/03 01:25:35;;;;;;;20.17;14.60;;;;;;;-3.66;100.00;100598.63;5033994;28;20563;-59
2023/12/03 01:28:01;;;;;;;22.10;14.70;;;;;;;-3.70;100.00;100591.88;5033673;28;20176;-60
2023/12/03 01:30:26;;;;;;;19.63;14.57;;;;;;;-3.78;100.00;100592.63;5023535;28;20718;-60
2023/12/03 01:32:51;;;;;;;17.53;14.73;;;;;;;-3.69;100.00;100598.59;5032245;28;20238;-60
2023/12/03 01:35:17;;;;;;;19.90;15.83;;;;;;;-3.51;100.00;100600.47;5033688;28;20206;-60
2023/12/03 01:37:42;;;;;;;18.97;15.17;;;;;;;-3.44;100.00;100595.50;5033559;28;20651;-59
2023/12/03 01:40:08;;;;;;;18.70;15.40;;;;;;;-3.37;100.00;100598.09;5023721;28;20547;-60
2023/12/03 01:42:34;;;;;;;21.33;15.40;;;;;;;-3.30;100.00;100595.69;5031657;28;20222;-59
2023/12/03 01:44:59;;;;;;;19.03;15.03;;;;;;;-3.22;100.00;100594.88;5033855;28;20185;-59
2023/12/03 01:47:25;;;;;;;20.03;15.97;;;;;;;-3.32;100.00;100596.50;5031576;28;20196;-60
2023/12/03 01:49:51;;;;;;;20.87;15.73;;;;;;;-3.26;100.00;100594.88;5033585;28;20197;-60
2023/12/03 01:52:17;;;;;;;17.20;14.17;;;;;;;-3.13;100.00;100595.00;5038877;28;20226;-59
2023/12/03 01:54:43;;;;;;;18.40;15.03;;;;;;;-3.15;100.00;100601.69;5033562;28;20182;-59
2023/12/03 01:57:09;;;;;;;20.23;15.17;;;;;;;-3.19;100.00;100595.78;5032919;28;20630;-59
2023/12/03 01:59:35;;;;;;;20.57;15.07;;;;;;;-3.10;100.00;100600.91;5033473;28;20468;-60
2023/12/03 02:02:00;;;;;;;19.77;15.80;;;;;;;-3.00;100.00;100603.50;5037761;28;20620;-59
2023/12/03 02:04:25;;;;;;;22.00;15.57;;;;;;;-2.89;100.00;100606.13;5033366;28;20666;-60
2023/12/03 02:06:51;;;;;;;21.20;16.37;;;;;;;-2.87;100.00;100605.31;5031599;28;20544;-59
2023/12/03 02:09:16;;;;;;;20.80;16.10;;;;;;;-2.92;100.00;100607.75;5033253;28;20209;-60
2023/12/03 02:11:43;;;;;;;20.73;15.97;;;;;;;-2.85;100.00;100611.19;5021772;28;20615;-59
2023/12/03 02:14:09;;;;;;;20.07;15.33;;;;;;;-2.73;100.00;100607.94;5032866;28;20269;-58
2023/12/03 02:16:35;;;;;;;21.20;16.03;;;;;;;-2.80;100.00;100601.19;5033225;28;20188;-58
2023/12/03 02:19:01;;;;;;;22.83;16.57;;;;;;;-2.94;100.00;100606.06;5032779;28;20237;-58
2023/12/03 02:21:26;;;;;;;20.80;15.97;;;;;;;-2.92;100.00;100610.28;5033742;28;20259;-58
2023/12/03 02:23:51;;;;;;;20.27;15.87;;;;;;;-2.89;100.00;100608.63;5029492;28;20211;-58
2023/12/03 02:26:16;;;;;;;21.03;15.73;;;;;;;-2.97;100.00;100608.56;5032840;28;20199;-59
2023/12/03 02:28:42;;;;;;;21.13;16.63;;;;;;;-2.84;100.00;100610.38;5031843;28;20184;-59
2023/12/03 02:31:07;;;;;;;20.30;16.73;;;;;;;-2.81;100.00;100607.03;5022225;28;20690;-59
2023/12/03 02:33:32;;;;;;;22.33;17.40;;;;;;;-2.96;100.00;100610.25;5031930;28;20193;-59
2023/12/03 02:35:59;;;;;;;22.60;17.80;;;;;;;-2.84;100.00;100609.50;5032655;28;20235;-59
2023/12/03 02:38:25;;;;;;;24.47;18.97;;;;;;;-2.90;100.00;100614.50;5032139;28;20192;-59
2023/12/03 02:40:50;;;;;;;26.73;18.77;;;;;;;-3.04;100.00;100619.41;5028444;28;20329;-59
2023/12/03 02:43:15;;;;;;;23.63;17.67;;;;;;;-3.11;100.00;100623.56;5037007;28;20199;-58
2023/12/03 02:45:40;;;;;;;24.77;19.20;;;;;;;-3.12;100.00;100630.25;5032725;28;20231;-58
2023/12/03 02:48:06;;;;;;;24.30;17.90;;;;;;;-3.15;100.00;100621.81;5031735;28;20616;-59
2023/12/03 02:50:31;;;;;;;26.37;18.37;;;;;;;-3.18;100.00;100624.31;5021860;28;20219;-59
2023/12/03 02:52:56;;;;;;;22.83;17.23;;;;;;;-3.32;100.00;100619.97;5031629;28;20187;-60
2023/12/03 02:55:22;;;;;;;31.80;20.00;;;;;;;-3.36;100.00;100619.91;5032090;28;20180;-58
2023/12/03 02:57:47;;;;;;;21.70;16.90;;;;;;;-3.34;100.00;100620.78;5032101;28;20214;-59
2023/12/03 03:00:13;;;;;;;27.53;19.63;;;;;;;-3.49;100.00;100624.81;5023383;28;20613;-61
2023/12/03 03:02:38;;;;;;;25.27;18.17;;;;;;;-3.61;100.00;100612.09;5045934;28;20194;-58
2023/12/03 03:05:05;;;;;;;26.50;19.13;;;;;;;-3.63;100.00;100614.59;5031752;28;20208;-58
2023/12/03 03:07:30;;;;;;;23.40;19.03;;;;;;;-3.70;100.00;100617.03;5032022;28;20270;-59
2023/12/03 03:09:55;;;;;;;26.87;18.53;;;;;;;-3.70;100.00;100617.84;5031982;28;20506;-59
2023/12/03 03:12:21;;;;;;;28.27;20.10;;;;;;;-3.74;100.00;100627.03;5020602;28;20243;-59
2023/12/03 03:14:46;;;;;;;27.67;19.37;;;;;;;-3.81;100.00;100627.75;5031781;28;20202;-60
2023/12/03 03:17:12;;;;;;;31.73;20.23;;;;;;;-3.82;100.00;100625.25;5031581;28;20170;-59
2023/12/03 03:19:37;;;;;;;30.00;20.23;;;;;;;-3.81;100.00;100629.44;5030453;28;20308;-60
2023/12/03 03:22:02;;;;;;;31.27;21.53;;;;;;;-3.82;100.00;100631.13;5020354;28;20536;-60
2023/12/03 03:24:28;;;;;;;28.33;20.30;;;;;;;-3.81;100.00;100632.78;5031663;28;20184;-59
2023/12/03 03:26:54;;;;;;;29.50;20.63;;;;;;;-3.78;100.00;100634.53;5031426;28;20200;-59
2023/12/03 03:29:19;;;;;;;31.43;21.37;;;;;;;-3.79;100.00;100647.91;5031654;28;20860;-60
2023/12/03 03:31:44;;;;;;;32.50;22.70;;;;;;;-3.79;100.00;100630.31;5020920;28;20222;-59
2023/12/03 03:34:10;;;;;;;29.43;21.10;;;;;;;-3.86;100.00;100638.59;5031217;28;20203;-59
2023/12/03 03:36:35;;;;;;;32.73;21.70;;;;;;;-3.83;100.00;100644.53;5030864;28;20194;-59
2023/12/03 03:39:01;;;;;;;29.90;21.00;;;;;;;-3.89;100.00;100642.75;5031695;28;20259;-60
2023/12/03 03:41:26;;;;;;;32.23;21.43;;;;;;;-3.92;100.00;100650.25;5032000;28;20269;-60
2023/12/03 03:43:51;;;;;;;30.13;20.90;;;;;;;-4.01;100.00;100642.59;5034649;28;20244;-60
2023/12/03 03:46:16;;;;;;;29.23;22.33;;;;;;;-3.87;100.00;100647.78;5031573;28;20272;-59
2023/12/03 03:48:42;;;;;;;31.00;21.00;;;;;;;-3.87;100.00;100652.81;5030773;28;20203;-59
2023/12/03 03:51:07;;;;;;;33.10;22.30;;;;;;;-3.79;100.00;100652.94;5020582;28;20217;-59
2023/12/03 03:53:33;;;;;;;31.07;21.67;;;;;;;-3.78;100.00;100654.63;5031128;28;20194;-59
2023/12/03 03:55:58;;;;;;;31.83;21.53;;;;;;;-3.76;100.00;100655.50;5031366;28;20184;-59
2023/12/03 03:58:23;;;;;;;30.53;21.57;;;;;;;-3.79;100.00;100655.47;5030786;28;20185;-59
2023/12/03 04:00:49;;;;;;;27.37;19.97;;;;;;;-4.06;100.00;100660.13;5026864;28;20217;-60
2023/12/03 04:03:14;;;;;;;29.00;21.70;;;;;;;-4.02;100.00;100660.16;5040365;28;20307;-61
2023/12/03 04:05:39;;;;;;;30.27;21.23;;;;;;;-3.83;100.00;100666.28;5022248;28;20637;-59
2023/12/03 04:08:05;;;;;;;34.33;22.17;;;;;;;-3.79;100.00;100661.31;5030920;28;20228;-60
2023/12/03 04:10:30;;;;;;;33.33;22.00;;;;;;;-3.70;100.00;100664.78;5020567;28;20259;-60
2023/12/03 04:12:56;;;;;;;31.77;20.47;;;;;;;-3.71;100.00;100668.13;5030083;28;20176;-60
2023/12/03 04:15:21;;;;;;;31.30;22.30;;;;;;;-3.47;100.00;100667.59;5031153;28;20187;-60
2023/12/03 04:17:46;;;;;;;31.10;22.17;;;;;;;-3.51;100.00;100669.25;5030475;28;20276;-60
2023/12/03 04:20:12;;;;;;;33.43;22.23;;;;;;;-3.62;100.00;100679.16;5020974;28;20180;-59
2023/12/03 04:22:37;;;;;;;30.47;22.03;;;;;;;-3.83;100.00;100682.22;5029767;28;20199;-59
2023/12/03 04:25:02;;;;;;;30.27;21.60;;;;;;;-3.78;100.00;100690.66;5031399;28;20182;-59
2023/12/03 04:27:28;;;;;;;33.37;21.63;;;;;;;-3.87;100.00;100689.69;5030786;28;20253;-59
2023/12/03 04:29:53;;;;;;;32.33;22.97;;;;;;;-3.79;100.00;100691.50;5031338;28;20208;-60
2023/12/03 04:32:18;;;;;;;32.27;22.13;;;;;;;-3.78;100.00;100692.34;4999533;28;20232;-59
2023/12/03 04:34:43;;;;;;;32.23;23.07;;;;;;;-3.92;100.00;100694.66;5030898;28;20546;-60
2023/12/03 04:37:09;;;;;;;30.23;21.70;;;;;;;-3.84;100.00;100699.81;5030646;28;20188;-59
2023/12/03 04:39:35;;;;;;;32.63;22.90;;;;;;;-4.01;100.00;100699.56;5030898;28;20213;-60
2023/12/03 04:42:00;;;;;;;33.00;22.37;;;;;;;-4.10;100.00;100706.13;5019483;28;20698;-59
2023/12/03 04:44:26;;;;;;;31.43;20.80;;;;;;;-3.93;100.00;100701.34;5020255;28;20182;-60
2023/12/03 04:46:51;;;;;;;34.20;21.83;;;;;;;-3.96;100.00;100696.28;5030433;28;20619;-60
2023/12/03 04:49:16;;;;;;;31.93;22.10;;;;;;;-4.01;100.00;100707.09;5034755;28;20207;-60
2023/12/03 04:51:42;;;;;;;31.53;22.63;;;;;;;-3.97;100.00;100713.84;5012396;28;20226;-60
2023/12/03 04:54:07;;;;;;;35.40;24.07;;;;;;;-3.98;100.00;100710.50;5032570;28;20177;-60
2023/12/03 04:56:32;;;;;;;33.23;22.53;;;;;;;-3.98;100.00;100709.63;5034064;28;20190;-61
2023/12/03 04:58:57;;;;;;;35.73;22.53;;;;;;;-4.08;100.00;100712.03;5034511;28;20170;-59
2023/12/03 05:01:23;;;;;;;33.00;22.80;;;;;;;-4.07;100.00;100712.84;5013442;28;20324;-60
2023/12/03 05:03:48;;;;;;;33.63;23.13;;;;;;;-4.07;100.00;100713.72;5019197;28;20238;-60
2023/12/03 05:06:14;;;;;;;36.37;23.87;;;;;;;-4.09;100.00;100710.34;5034805;28;20200;-60
2023/12/03 05:08:39;;;;;;;32.47;22.13;;;;;;;-4.25;100.00;100714.28;5033781;28;20810;-59
2023/12/03 05:11:05;;;;;;;37.43;23.80;;;;;;;-4.12;100.00;100720.34;5023749;28;20241;-60
2023/12/03 05:13:31;;;;;;;34.73;22.97;;;;;;;-3.99;100.00;100726.41;5033716;28;20220;-59
2023/12/03 05:15:57;;;;;;;35.53;23.50;;;;;;;-3.95;100.00;100730.63;5034454;28;20411;-59
2023/12/03 05:18:22;;;;;;;36.17;23.60;;;;;;;-4.06;100.00;100738.03;5033988;28;20175;-59
2023/12/03 05:20:48;;;;;;;34.03;23.80;;;;;;;-4.03;100.00;100726.31;5030062;28;20229;-59
2023/12/03 05:23:14;;;;;;;37.97;25.13;;;;;;;-3.93;100.00;100730.66;5043275;28;20220;-59
2023/12/03 05:25:39;;;;;;;35.10;22.73;;;;;;;-4.06;100.00;100732.16;5034241;28;20410;-60
2023/12/03 05:28:04;;;;;;;33.27;22.10;;;;;;;-3.96;100.00;100738.16;5033302;28;20187;-61
2023/12/03 05:30:30;;;;;;;34.80;22.27;;;;;;;-4.13;100.00;100733.72;5023423;28;20840;-60
2023/12/03 05:32:55;;;;;;;32.03;22.40;;;;;;;-3.95;100.00;100738.19;5032734;28;20184;-60
2023/12/03 05:35:20;;;;;;;33.93;23.10;;;;;;;-3.95;100.00;100739.84;5023700;28;20199;-60
2023/12/03 05:37:45;;;;;;;35.23;24.50;;;;;;;-3.83;100.00;100744.22;5033290;28;20192;-59
2023/12/03 05:40:11;;;;;;;36.37;24.13;;;;;;;-3.82;100.00;100748.41;5025079;28;20239;-59
2023/12/03 05:42:36;;;;;;;36.70;22.83;;;;;;;-3.65;100.00;100741.97;5042757;28;20552;-61
2023/12/03 05:45:03;;;;;;;32.70;23.10;;;;;;;-3.48;100.00;100748.91;5033417;28;20183;-60
2023/12/03 05:47:29;;;;;;;35.63;22.93;;;;;;;-3.59;100.00;100739.53;5033254;28;20181;-59
2023/12/03 05:49:54;;;;;;;35.90;24.43;;;;;;;-3.70;100.00;100728.47;5033871;28;20931;-59
2023/12/03 05:52:19;;;;;;;38.03;24.93;;;;;;;-3.93;100.00;100738.19;5022605;28;20469;-60
2023/12/03 05:54:45;;;;;;;34.67;24.00;;;;;;;-3.94;100.00;100737.38;5033543;28;20585;-60
2023/12/03 05:57:10;;;;;;;35.77;23.80;;;;;;;-4.05;100.00;100732.16;5032788;28;20191;-60
2023/12/03 05:59:36;;;;;;;33.33;22.37;;;;;;;-4.03;100.00;100732.22;5032435;28;20191;-60
2023/12/03 06:02:01;;;;;;;34.93;24.37;;;;;;;-3.99;100.00;100733.09;5038682;28;20222;-60
2023/12/03 06:04:26;;;;;;;43.23;24.23;;;;;;;-4.06;100.00;100728.00;5033632;28;20186;-59
2023/12/03 06:06:52;;;;;;;38.80;22.60;;;;;;;-4.20;100.00;100729.41;5032779;28;20198;-60
2023/12/03 06:09:17;;;;;;;35.23;23.17;;;;;;;-4.29;100.00;100729.25;5033546;28;20182;-61
2023/12/03 06:11:42;;;;;;;36.00;23.50;;;;;;;-4.31;100.00;100733.44;5035947;28;20292;-59
2023/12/03 06:14:07;;;;;;;33.33;23.23;;;;;;;-4.32;100.00;100736.75;5035948;28;20539;-59
2023/12/03 06:16:33;;;;;;;35.83;23.40;;;;;;;-4.41;100.00;100740.78;5032433;28;20652;-61
2023/12/03 06:18:58;;;;;;;34.30;22.30;;;;;;;-4.47;100.00;100752.41;5033261;28;20170;-60
2023/12/03 06:21:23;;;;;;;41.57;24.23;;;;;;;-4.56;100.00;100758.13;5022144;28;20256;-60
2023/12/03 06:23:49;;;;;;;34.60;21.90;;;;;;;-4.63;100.00;100748.78;5032893;28;20605;-60
2023/12/03 06:26:14;;;;;;;36.77;23.33;;;;;;;-4.44;100.00;100748.28;5033070;28;20303;-60
2023/12/03 06:28:39;;;;;;;38.23;25.90;;;;;;;-4.66;100.00;100756.25;5032537;28;20189;-59
2023/12/03 06:31:06;;;;;;;38.63;24.50;;;;;;;-4.94;100.00;100748.19;5022197;28;20230;-59
2023/12/03 06:33:31;;;;;;;36.00;23.10;;;;;;;-5.08;100.00;100746.25;5032659;28;20654;-59
2023/12/03 06:35:57;;;;;;;37.03;23.97;;;;;;;-5.05;100.00;100751.34;5032782;28;20443;-60
2023/12/03 06:38:22;;;;;;;40.73;26.00;;;;;;;-5.08;100.00;100751.28;5032518;28;20170;-60
2023/12/03 06:40:47;;;;;;;44.40;24.83;;;;;;;-5.15;100.00;100758.66;5021383;28;20316;-60
2023/12/03 06:43:12;;;;;;;37.87;24.60;;;;;;;-5.23;100.00;100756.84;5031086;28;20595;-61
2023/12/03 06:45:38;;;;;;;44.20;25.87;;;;;;;-5.25;100.00;100758.44;5032480;28;20244;-60
2023/12/03 06:48:03;;;;;;;43.10;25.93;;;;;;;-5.31;100.00;100755.81;5032729;28;20188;-59
2023/12/03 06:50:29;;;;;;;48.80;26.43;;;;;;;-5.35;100.00;100759.09;5020143;28;20226;-60
2023/12/03 06:52:54;;;;;;;39.93;24.73;;;;;;;-5.31;100.00;100765.84;5019889;28;20589;-60
2023/12/03 06:55:19;;;;;;;41.53;25.57;;;;;;;-5.13;100.00;100772.91;5032437;28;20186;-60
2023/12/03 06:57:45;;;;;;;39.53;25.60;;;;;;;-4.94;100.00;100771.63;5032083;28;20237;-60
2023/12/03 07:00:10;;;;;;;40.40;24.77;;;;;;;-4.88;100.00;100774.25;5023430;28;20559;-60
2023/12/03 07:02:36;;;;;;;39.63;25.23;;;;;;;-4.95;100.00;100776.63;5046473;28;20241;-60
2023/12/03 07:05:02;;;;;;;42.23;25.70;;;;;;;-4.97;100.00;100779.09;5032319;28;20641;-60
2023/12/03 07:07:27;;;;;;;39.77;25.83;;;;;;;-4.99;100.00;100779.88;5031844;28;20185;-60
2023/12/03 07:09:52;;;;;;;42.67;24.87;;;;;;;-5.04;100.00;100779.78;5031899;28;20182;-60
2023/12/03 07:12:17;;;;;;;41.97;25.63;;;;;;;-5.20;100.00;100793.66;5037648;28;20313;-60
2023/12/03 07:14:43;;;;;;;38.67;24.43;;;;;;;-5.33;100.00;100787.56;5030322;28;20182;-60
2023/12/03 07:17:08;;;;;;;42.83;26.37;;;;;;;-5.23;100.00;100796.97;5031410;28;20189;-61
2023/12/03 07:19:33;;;;;;;40.60;25.20;;;;;;;-5.20;100.00;100794.53;5031931;28;20193;-60
2023/12/03 07:21:59;;;;;;;40.63;25.37;;;;;;;-5.20;100.00;100804.56;5008069;28;20291;-60
2023/12/03 07:24:24;;;;;;;39.53;24.17;;;;;;;-5.15;100.00;100807.16;5031698;28;20706;-60
2023/12/03 07:26:49;;;;;;;40.40;24.77;;;;;;;-4.99;100.00;100812.50;5031412;28;20174;-60
2023/12/03 07:29:17;;;;;;;45.73;26.47;;;;;;;-5.07;100.00;100804.84;5031784;28;21528;-60
2023/12/03 07:31:42;;;;;;;40.27;26.03;;;;;;;-5.06;100.00;100812.38;5018807;28;20217;-60
2023/12/03 07:34:08;;;;;;;43.73;25.60;;;;;;;-5.04;100.00;100814.91;5031432;28;20428;-60
2023/12/03 07:36:33;;;;;;;39.10;24.80;;;;;;;-4.86;100.00;100817.81;5030715;28;20633;-60
2023/12/03 07:38:58;;;;;;;42.43;25.80;;;;;;;-4.89;100.00;100819.41;5030355;28;20269;-60
2023/12/03 07:41:23;;;;;;;42.57;26.03;;;;;;;-4.83;100.00;100822.03;5020946;28;20637;-60
2023/12/03 07:43:49;;;;;;;39.50;25.33;;;;;;;-4.75;100.00;100828.06;5030946;28;20205;-61
2023/12/03 07:46:17;;;;;;;38.37;25.77;;;;;;;-4.67;100.00;100830.72;5031065;28;20171;-60
2023/12/03 07:48:43;;;;;;;41.30;26.40;;;;;;;-4.69;100.00;100832.34;5030893;28;20186;-60
2023/12/03 07:51:10;;;;;;;42.73;27.67;;;;;;;-4.64;100.00;100829.94;5019754;28;20472;-61
2023/12/03 07:53:35;;;;;;;41.67;26.53;;;;;;;-4.48;100.00;100831.91;5030361;28;20249;-61
2023/12/03 07:56:00;;;;;;;43.37;26.73;;;;;;;-4.32;100.00;100850.63;5031668;28;20460;-58
2023/12/03 07:58:25;;;;;;;38.43;25.50;;;;;;;-4.28;100.00;100847.38;5024600;28;20175;-60
2023/12/03 08:00:51;;;;;;;41.67;26.23;;;;;;;-4.15;100.00;100857.66;5009238;28;20223;-59
2023/12/03 08:03:16;;;;;;;44.30;27.73;;;;;;;-4.03;100.00;100865.41;5020427;28;20587;-61
2023/12/03 08:05:41;;;;;;;43.43;26.87;;;;;;;-3.95;100.00;100861.34;5031263;28;20651;-61
2023/12/03 08:08:07;;;;;;;37.13;25.07;;;;;;;-3.91;100.00;100864.75;5030817;28;20179;-60
2023/12/03 08:10:32;;;;;;;43.20;25.90;;;;;;;-3.86;100.00;100860.66;5022361;28;20241;-61
2023/12/03 08:12:57;;;;;;;37.23;24.60;;;;;;;-3.90;100.00;100858.91;5042447;28;20602;-59
2023/12/03 08:15:22;;;;;;;37.80;24.23;;;;;;;-3.93;100.00;100859.72;5029500;28;20203;-59
2023/12/03 08:17:48;;;;;;;35.47;24.13;;;;;;;-3.83;100.00;100857.34;5029089;28;20487;-59
2023/12/03 08:20:13;;;;;;;36.67;24.10;;;;;;;-3.86;100.00;100854.78;5018670;28;20191;-59
2023/12/03 08:22:38;;;;;;;35.93;23.20;;;;;;;-3.77;100.00;100860.81;5030120;28;20257;-59
2023/12/03 08:25:06;;;;;;;39.33;24.47;;;;;;;-3.68;100.00;100854.22;5034250;28;20182;-59
2023/12/03 08:27:32;;;;;;;38.13;25.73;;;;;;;-3.55;100.00;100853.59;5033829;28;20179;-61
2023/12/03 08:29:57;;;;;;;41.40;24.17;;;;;;;-3.70;100.00;100844.16;5034003;28;20180;-59
2023/12/03 08:32:22;;;;;;;38.97;24.27;;;;;;;-3.62;100.00;100845.13;5002212;28;20331;-59
2023/12/03 08:34:47;;;;;;;35.97;24.43;;;;;;;-3.51;100.00;100841.91;5034264;28;20227;-60
2023/12/03 08:37:13;;;;;;;37.03;24.43;;;;;;;-3.53;100.00;100843.59;5035490;28;20267;-60
2023/12/03 08:39:38;;;;;;;32.73;22.87;;;;;;;-3.37;100.00;100837.94;5034815;28;20201;-59
2023/12/03 08:42:04;;;;;;;35.50;24.57;;;;;;;-3.34;100.00;100837.97;5023558;28;20590;-59
2023/12/03 08:44:32;;;;;;;36.77;24.90;;;;;;;-3.16;100.00;100831.50;5034605;28;20193;-58
2023/12/03 08:46:57;;;;;;;37.53;24.33;;;;;;;-3.09;100.00;100834.16;5034412;28;20558;-59
2023/12/03 08:49:22;;;;;;;38.33;25.10;;;;;;;-2.99;100.00;100844.34;5035044;28;20231;-58
2023/12/03 08:51:47;;;;;;;36.17;24.67;;;;;;;-2.86;100.00;100848.69;5022763;28;20243;-59
2023/12/03 08:54:13;;;;;;;37.00;25.23;;;;;;;-2.38;100.00;100854.31;5034626;28;20360;-59
2023/12/03 08:56:38;;;;;;;35.83;25.33;;;;;;;-0.89;100.00;100856.31;5034141;28;20214;-60
2023/12/03 08:59:03;;;;;;;32.87;23.40;;;;;;;0.51;100.00;100852.38;5032863;28;20317;-60
2023/12/03 09:01:29;;;;;;;33.27;23.40;;;;;;;1.90;100.00;100848.47;5035599;28;20232;-60
2023/12/03 09:03:54;;;;;;;30.73;23.03;;;;;;;2.69;100.00;100843.59;5039088;28;20212;-59
2023/12/03 09:06:19;;;;;;;27.90;22.60;;;;;;;1.91;100.00;100847.59;5034567;28;20543;-59
2023/12/03 09:08:45;;;;;;;26.00;21.43;;;;;;;2.16;100.00;100844.88;5033767;28;20189;-59
2023/12/03 09:11:10;;;;;;;29.77;22.37;;;;;;;2.36;100.00;100844.75;5023294;28;20241;-59
2023/12/03 09:13:36;;;;;;;28.83;24.27;;;;;;;3.50;95.07;100853.69;5033743;28;20190;-59
2023/12/03 09:16:01;;;;;;;28.73;24.13;;;;;;;4.29;86.14;100849.13;5034604;28;20260;-59
2023/12/03 09:18:27;;;;;;;31.27;24.37;;;;;;;4.08;81.91;100853.72;5033661;28;20242;-60
2023/12/03 09:20:52;;;;;;;29.10;24.20;;;;;;;4.71;76.65;100848.41;5030993;28;20256;-59
2023/12/03 09:23:18;;;;;;;26.83;23.17;;;;;;;5.26;68.31;100844.81;5043307;28;20576;-58
2023/12/03 09:25:43;;;;;;;29.43;23.53;;;;;;;5.30;68.15;100846.41;5034364;28;20284;-58
2023/12/03 09:28:08;;;;;;;25.00;22.23;;;;;;;6.54;62.86;100841.03;5033624;28;20618;-59
2023/12/03 09:30:33;;;;;;;24.40;21.80;;;;;;;7.15;60.50;100847.94;5027648;28;20314;-58
2023/12/03 09:32:59;;;;;;;24.77;22.07;;;;;;;7.88;55.79;100840.69;5045366;28;20178;-59
2023/12/03 09:35:29;;;;;;;26.93;22.67;;;;;;;6.30;55.53;100845.91;5034024;28;20273;-60
2023/12/03 09:37:54;;;;;;;24.07;21.57;;;;;;;6.85;57.68;100852.19;5033506;28;20182;-59
2023/12/03 09:40:20;;;;;;;25.20;22.70;;;;;;;7.08;54.53;100842.16;5026034;28;20268;-60
2023/12/03 09:42:47;;;;;;;22.80;20.50;;;;;;;6.66;57.27;100847.56;5046058;28;20736;-58
2023/12/03 09:45:15;;;;;;;24.17;21.63;;;;;;;7.46;54.99;100839.38;5034252;28;20693;-60
2023/12/03 09:47:46;;;;;;;23.30;20.97;;;;;;;7.25;55.25;100839.09;5031830;28;20204;-59
2023/12/03 09:50:12;;;;;;;21.50;19.30;;;;;;;8.19;53.38;100840.53;5023669;28;20308;-60
2023/12/03 09:52:40;;;;;;;20.23;18.23;;;;;;;7.71;52.16;100836.06;5018910;28;20617;-59
2023/12/03 09:55:06;;;;;;;21.63;19.33;;;;;;;7.71;52.71;100836.06;5033520;28;20206;-60
2023/12/03 09:57:33;;;;;;;22.00;19.77;;;;;;;6.09;56.14;100838.75;5032977;28;20563;-59
2023/12/03 10:00:04;;;;;;;21.13;18.93;;;;;;;5.44;59.79;100837.63;5033846;28;20193;-58
2023/12/03 10:02:31;;;;;;;20.87;18.80;;;;;;;3.15;77.31;100851.56;5003384;28;20607;-59
2023/12/03 10:04:56;;;;;;;21.93;19.43;;;;;;;2.33;94.17;100845.63;5033502;28;20237;-60
2023/12/03 10:07:23;;;;;;;21.40;19.13;;;;;;;1.39;100.00;100843.66;5033259;28;20240;-59
2023/12/03 10:09:49;;;;;;;22.17;19.77;;;;;;;1.25;100.00;100848.81;5033148;28;20268;-59
2023/12/03 10:12:17;;;;;;;23.70;19.80;;;;;;;0.63;100.00;100848.97;5014570;28;20357;-60
2023/12/03 10:14:42;;;;;;;25.13;20.07;;;;;;;0.20;100.00;100839.72;5027864;28;20195;-60
2023/12/03 10:17:08;;;;;;;25.67;19.90;;;;;;;0.22;100.00;100844.78;5032956;28;20261;-59
2023/12/03 10:19:33;;;;;;;27.23;19.43;;;;;;;-0.10;100.00;100848.97;5033067;28;20244;-59
2023/12/03 10:21:59;;;;;;;24.87;19.10;;;;;;;-0.08;100.00;100848.97;5009041;28;20224;-58
2023/12/03 10:24:24;;;;;;;23.60;18.83;;;;;;;-0.42;100.00;100843.81;5032658;28;20193;-62
2023/12/03 10:26:56;;;;;;;25.37;18.80;;;;;;;-0.55;100.00;100838.75;5032383;28;20261;-58
2023/12/03 10:29:25;;;;;;;27.93;19.50;;;;;;;-0.70;100.00;100839.53;5032925;28;20182;-60
2023/12/03 10:31:51;;;;;;;27.77;19.53;;;;;;;-0.65;100.00;100844.59;5037544;28;20226;-59
2023/12/03 10:34:17;;;;;;;25.87;19.37;;;;;;;-0.62;100.00;100843.78;5034603;28;20377;-59
2023/12/03 10:36:43;;;;;;;26.03;19.70;;;;;;;-0.51;100.00;100839.59;5032226;28;20193;-58
2023/12/03 10:39:09;;;;;;;26.93;19.00;;;;;;;-0.45;100.00;100836.25;5032396;28;20186;-59
2023/12/03 10:41:34;;;;;;;26.17;18.83;;;;;;;-0.31;100.00;100831.22;5033831;28;20233;-59
2023/12/03 10:44:00;;;;;;;26.10;18.23;;;;;;;-0.23;100.00;100827.88;5030945;28;20698;-59
2023/12/03 10:46:26;;;;;;;26.47;20.20;;;;;;;-0.16;100.00;100828.75;5031540;28;20186;-60
2023/12/03 10:48:52;;;;;;;29.30;18.33;;;;;;;-0.15;100.00;100822.81;5032424;28;20209;-60
2023/12/03 10:51:18;;;;;;;24.73;18.60;;;;;;;-0.05;100.00;100833.78;5022340;28;20328;-59
2023/12/03 10:53:44;;;;;;;24.80;17.67;;;;;;;-0.03;100.00;100816.94;5024608;28;20312;-58